createdAt,value
2023-05-15T00:02:17.836Z,85.46
2023-05-15T00:05:07.141Z,84.70
2023-05-15T00:07:55.144Z,84.55
2023-05-15T00:10:57.536Z,84.46
2023-05-15T00:13:48.438Z,84.33
2023-05-15T00:16:36.969Z,85.25
2023-05-15T00:19:25.008Z,84.82
2023-05-15T00:22:13.381Z,84.60
2023-05-15T00:25:01.295Z,84.15
2023-05-15T00:27:50.889Z,84.30
2023-05-15T00:30:38.833Z,83.70
2023-05-15T00:33:28.085Z,84.32
2023-05-15T00:36:17.390Z,84.36
2023-05-15T00:39:05.839Z,83.49
2023-05-15T00:41:54.693Z,84.64
2023-05-15T00:44:46.076Z,84.28
2023-05-15T00:47:35.600Z,84.72
2023-05-15T00:50:24.796Z,85.12
2023-05-15T00:53:12.776Z,84.96
2023-05-15T00:56:02.197Z,84.93
2023-05-15T00:58:51.977Z,85.12
2023-05-15T01:01:41.745Z,86.09
2023-05-15T01:04:29.956Z,86.79
2023-05-15T01:07:18.479Z,86.99
2023-05-15T01:10:09.024Z,85.60
2023-05-15T01:12:59.681Z,85.76
2023-05-15T01:15:47.617Z,85.03
2023-05-15T01:18:37.842Z,86.61
2023-05-15T01:22:01.099Z,86.10
2023-05-15T01:25:16.061Z,85.44
2023-05-15T01:28:08.826Z,87.09
2023-05-15T01:30:58.201Z,88.16
2023-05-15T01:33:51.145Z,87.23
2023-05-15T01:36:44.160Z,88.07
2023-05-15T01:39:35.161Z,88.69
2023-05-15T01:42:28.493Z,88.22
2023-05-15T01:45:19.467Z,88.14
2023-05-15T01:48:09.329Z,87.89
2023-05-15T01:51:02.351Z,87.91
2023-05-15T01:53:51.262Z,88.10
2023-05-15T01:56:45.348Z,89.02
2023-05-15T01:59:35.852Z,88.59
2023-05-15T02:02:26.659Z,88.35
2023-05-15T02:05:18.901Z,88.11
2023-05-15T02:08:09.436Z,88.61
2023-05-15T02:10:59.385Z,89.35
2023-05-15T02:13:48.221Z,89.18
2023-05-15T02:16:36.825Z,89.43
2023-05-15T02:19:26.231Z,89.71
2023-05-15T02:22:14.433Z,89.41
2023-05-15T02:25:02.363Z,88.81
2023-05-15T02:27:59.978Z,89.31
2023-05-15T02:30:55.877Z,89.63
2023-05-15T02:33:52.060Z,90.72
2023-05-15T02:36:45.597Z,89.99
2023-05-15T02:39:34.450Z,89.93
2023-05-15T02:42:23.671Z,89.68
2023-05-15T02:45:13.269Z,89.93
2023-05-15T02:48:02.676Z,89.83
2023-05-15T02:50:50.713Z,89.87
2023-05-15T02:53:42.318Z,89.90
2023-05-15T02:56:30.291Z,89.74
2023-05-15T02:59:20.302Z,90.18
2023-05-15T03:02:08.274Z,90.04
2023-05-15T03:04:56.539Z,90.18
2023-05-15T03:07:44.493Z,90.30
2023-05-15T03:10:34.095Z,90.64
2023-05-15T03:13:22.051Z,90.64
2023-05-15T03:16:10.455Z,90.59
2023-05-15T03:18:58.506Z,90.42
2023-05-15T03:21:46.814Z,90.49
2023-05-15T03:24:34.784Z,90.84
2023-05-15T03:27:24.333Z,91.05
2023-05-15T03:30:12.435Z,90.96
2023-05-15T03:33:03.854Z,91.06
2023-05-15T03:35:52.455Z,91.21
2023-05-15T03:38:41.732Z,91.01
2023-05-15T03:41:29.785Z,91.29
2023-05-15T03:44:19.275Z,91.19
2023-05-15T03:47:08.300Z,91.10
2023-05-15T03:49:56.469Z,90.88
2023-05-15T03:52:44.464Z,90.88
2023-05-15T03:55:32.900Z,91.25
2023-05-15T03:58:20.801Z,91.10
2023-05-15T04:01:10.208Z,91.05
2023-05-15T04:03:58.110Z,91.45
2023-05-15T04:06:46.520Z,91.59
2023-05-15T04:09:34.640Z,91.39
2023-05-15T04:12:22.773Z,91.38
2023-05-15T04:15:21.900Z,91.95
2023-05-15T04:18:11.376Z,91.65
2023-05-15T04:20:59.255Z,91.50
2023-05-15T04:23:47.883Z,91.46
2023-05-15T04:26:36.483Z,91.48
2023-05-15T04:29:25.027Z,91.60
2023-05-15T04:32:12.991Z,91.36
2023-05-15T04:35:02.551Z,91.44
2023-05-15T04:37:50.504Z,91.05
2023-05-15T04:40:38.447Z,90.31
2023-05-15T04:43:26.646Z,89.76
2023-05-15T04:46:14.690Z,89.77
2023-05-15T04:49:02.988Z,90.24
2023-05-15T04:51:52.228Z,90.51
2023-05-15T04:54:40.268Z,90.47
2023-05-15T04:57:28.327Z,90.30
2023-05-15T05:00:17.247Z,90.03
2023-05-15T05:03:05.364Z,90.21
2023-05-15T05:05:53.287Z,89.52
2023-05-15T05:08:42.919Z,90.41
2023-05-15T05:11:30.805Z,90.12
2023-05-15T05:14:18.999Z,90.65
2023-05-15T05:17:06.934Z,90.53
2023-05-15T05:19:55.007Z,90.29
2023-05-15T05:22:42.956Z,90.22
2023-05-15T05:25:32.572Z,89.14
2023-05-15T05:28:20.511Z,88.93
2023-05-15T05:31:08.486Z,88.45
2023-05-15T05:33:57.048Z,87.94
2023-05-15T05:36:44.952Z,88.35
2023-05-15T05:39:33.229Z,88.05
2023-05-15T05:42:22.499Z,87.06
2023-05-15T05:45:11.556Z,86.30
2023-05-15T05:47:59.797Z,85.64
2023-05-15T05:50:48.024Z,85.96
2023-05-15T05:53:37.542Z,86.62
2023-05-15T05:56:26.568Z,86.06
2023-05-15T05:59:16.400Z,86.59
2023-05-15T06:02:05.038Z,87.05
2023-05-15T06:04:53.293Z,86.43
2023-05-15T06:07:41.347Z,86.79
2023-05-15T06:10:29.938Z,86.73
2023-05-15T06:13:17.906Z,85.66
2023-05-15T06:16:07.877Z,83.58
2023-05-15T06:18:56.180Z,82.12
2023-05-15T06:21:44.176Z,82.93
2023-05-15T06:24:32.883Z,82.80
2023-05-15T06:27:20.964Z,82.21
2023-05-15T06:30:10.309Z,80.71
2023-05-15T06:32:59.870Z,80.43
2023-05-15T06:35:48.317Z,79.51
2023-05-15T06:38:36.571Z,79.00
2023-05-15T06:41:24.526Z,78.32
2023-05-15T06:44:12.727Z,76.15
2023-05-15T06:47:00.912Z,74.92
2023-05-15T06:49:50.404Z,74.59
2023-05-15T06:52:38.368Z,74.54
2023-05-15T06:55:26.898Z,73.67
2023-05-15T06:58:17.838Z,71.82
2023-05-15T07:01:07.389Z,70.12
2023-05-15T07:03:55.611Z,68.82
2023-05-15T07:06:45.508Z,68.20
2023-05-15T07:09:33.437Z,65.25
2023-05-15T07:12:21.589Z,66.58
2023-05-15T07:15:10.313Z,64.43
2023-05-15T07:17:58.507Z,64.45
2023-05-15T07:20:46.532Z,65.22
2023-05-15T07:23:35.815Z,60.71
2023-05-15T07:26:32.817Z,58.07
2023-05-15T07:29:24.714Z,56.99
2023-05-15T07:32:12.629Z,54.87
2023-05-15T07:35:00.809Z,54.16
2023-05-15T07:37:49.163Z,55.39
2023-05-15T07:40:38.579Z,59.62
2023-05-15T07:43:26.867Z,60.39
2023-05-15T07:46:14.860Z,57.91
2023-05-15T07:49:03.116Z,56.51
2023-05-15T07:51:51.129Z,56.53
2023-05-15T07:54:39.759Z,55.10
2023-05-15T07:57:29.023Z,57.01
2023-05-15T08:00:19.023Z,55.96
2023-05-15T08:03:07.167Z,55.20
2023-05-15T08:05:55.514Z,54.25
2023-05-15T08:08:43.654Z,53.74
2023-05-15T08:11:31.672Z,53.22
2023-05-15T08:14:20.983Z,56.59
2023-05-15T08:17:09.881Z,57.22
2023-05-15T08:19:57.817Z,59.23
2023-05-15T08:22:45.968Z,58.62
2023-05-15T08:25:33.918Z,61.27
2023-05-15T08:28:22.236Z,59.79
2023-05-15T08:31:11.491Z,60.22
2023-05-15T08:33:59.608Z,59.26
2023-05-15T08:36:47.544Z,59.98
2023-05-15T08:39:35.744Z,57.98
2023-05-15T08:42:29.241Z,60.29
2023-05-15T08:45:17.534Z,60.71
2023-05-15T08:48:12.262Z,59.88
2023-05-15T08:51:01.678Z,59.80
2023-05-15T08:53:50.715Z,59.56
2023-05-15T08:56:38.985Z,57.88
2023-05-15T08:59:27.311Z,59.98
2023-05-15T09:02:17.088Z,57.96
2023-05-15T09:05:07.439Z,58.96
2023-05-15T09:07:56.773Z,60.06
2023-05-15T09:10:45.584Z,60.51
2023-05-15T09:13:33.671Z,57.71
2023-05-15T09:16:22.315Z,58.00
2023-05-15T09:19:11.527Z,56.25
2023-05-15T09:22:16.539Z,57.02
2023-05-15T09:25:06.695Z,57.78
2023-05-15T09:27:54.958Z,58.58
2023-05-15T09:30:43.972Z,58.32
2023-05-15T09:33:34.891Z,56.42
2023-05-15T09:36:24.134Z,55.58
2023-05-15T09:39:13.411Z,55.94
2023-05-15T09:42:08.766Z,54.88
2023-05-15T09:44:56.708Z,55.29
2023-05-15T09:47:45.464Z,55.85
2023-05-15T09:50:35.214Z,56.02
2023-05-15T09:53:23.882Z,56.94
2023-05-15T09:56:13.362Z,54.63
2023-05-15T09:59:01.607Z,51.44
2023-05-15T10:01:50.701Z,50.66
2023-05-15T10:04:39.927Z,51.84
2023-05-15T10:07:32.119Z,52.12
2023-05-15T10:10:20.596Z,52.99
2023-05-15T10:13:11.995Z,52.33
2023-05-15T10:16:02.271Z,50.86
2023-05-15T10:18:52.299Z,49.23
2023-05-15T10:21:42.201Z,51.34
2023-05-15T10:24:32.297Z,51.79
2023-05-15T10:27:21.914Z,50.45
2023-05-15T10:30:12.540Z,48.63
2023-05-15T10:33:02.190Z,51.39
2023-05-15T10:35:52.251Z,51.02
2023-05-15T10:38:41.214Z,49.92
2023-05-15T10:41:31.386Z,48.58
2023-05-15T10:44:20.286Z,47.94
2023-05-15T10:47:10.535Z,47.99
2023-05-15T10:49:58.955Z,46.55
2023-05-15T10:52:47.216Z,45.61
2023-05-15T10:55:35.143Z,45.99
2023-05-15T10:58:24.581Z,46.69
2023-05-15T11:01:25.970Z,45.47
2023-05-15T11:04:17.525Z,41.81
2023-05-15T11:07:14.332Z,44.95
2023-05-15T11:10:38.850Z,43.41
2023-05-15T11:13:27.410Z,42.61
2023-05-15T11:16:36.488Z,41.44
2023-05-15T11:19:34.804Z,40.32
2023-05-15T11:22:28.668Z,42.86
2023-05-15T11:25:17.331Z,46.08
2023-05-15T11:28:07.729Z,44.64
2023-05-15T11:31:03.304Z,46.13
2023-05-15T11:33:52.469Z,46.66
2023-05-15T11:36:44.095Z,41.96
2023-05-15T11:39:40.211Z,44.84
2023-05-15T11:42:28.961Z,42.14
2023-05-15T11:45:17.350Z,39.84
2023-05-15T11:48:07.749Z,38.86
2023-05-15T11:50:56.397Z,38.59
2023-05-15T11:53:46.445Z,40.45
2023-05-15T11:56:34.919Z,43.26
2023-05-15T11:59:22.833Z,44.59
2023-05-15T12:02:11.275Z,43.69
2023-05-15T12:04:59.211Z,52.56
2023-05-15T12:07:47.775Z,58.80
2023-05-15T12:10:16.756Z,60.30
2023-05-15T12:12:46.259Z,58.65
2023-05-15T12:15:15.772Z,58.46
2023-05-15T12:17:45.220Z,61.63
2023-05-15T12:20:17.575Z,59.36
2023-05-15T12:22:45.853Z,61.17
2023-05-15T12:25:16.320Z,58.75
2023-05-15T12:27:45.702Z,56.45
2023-05-15T12:30:15.445Z,59.12
2023-05-15T12:32:43.704Z,60.35
2023-05-15T12:35:12.706Z,49.50
2023-05-15T12:37:41.210Z,53.43
2023-05-15T12:40:10.583Z,51.39
2023-05-15T12:42:42.631Z,44.88
2023-05-15T12:45:17.210Z,48.14
2023-05-15T12:47:47.113Z,46.75
2023-05-15T12:50:16.633Z,45.14
2023-05-15T12:52:49.027Z,45.19
2023-05-15T12:55:18.159Z,46.27
2023-05-15T12:57:46.084Z,46.90
2023-05-15T13:00:16.622Z,49.06
2023-05-15T13:02:45.779Z,48.79
2023-05-15T13:05:14.752Z,45.99
2023-05-15T13:07:43.030Z,47.76
2023-05-15T13:10:13.042Z,45.47
2023-05-15T13:12:43.945Z,45.44
2023-05-15T13:15:26.346Z,46.37
2023-05-15T13:18:00.494Z,46.61
2023-05-15T13:20:29.273Z,48.83
2023-05-15T13:22:56.950Z,46.87
2023-05-15T13:25:25.282Z,49.05
2023-05-15T13:27:52.980Z,50.79
2023-05-15T13:30:20.949Z,50.88
2023-05-15T13:32:50.002Z,48.59
2023-05-15T13:35:17.731Z,44.16
2023-05-15T13:37:45.894Z,44.42
2023-05-15T13:40:14.369Z,43.63
2023-05-15T13:42:44.887Z,43.45
2023-05-15T13:45:15.133Z,41.98
2023-05-15T13:47:43.694Z,43.84
2023-05-15T13:50:14.789Z,45.64
2023-05-15T13:52:43.563Z,47.21
2023-05-15T13:55:11.966Z,48.15
2023-05-15T13:57:41.171Z,47.01
2023-05-15T14:00:12.514Z,45.91
2023-05-15T14:02:41.425Z,46.27
2023-05-15T14:05:09.875Z,47.76
2023-05-15T14:07:39.708Z,45.26
2023-05-15T14:10:08.606Z,46.93
2023-05-15T14:12:37.520Z,46.14
2023-05-15T14:15:05.884Z,46.23
2023-05-15T14:17:33.737Z,45.62
2023-05-15T14:20:01.344Z,45.49
2023-05-15T14:22:29.161Z,45.11
2023-05-15T14:24:58.187Z,47.61
2023-05-15T14:27:26.254Z,48.75
2023-05-15T14:29:53.853Z,50.48
2023-05-15T14:32:22.158Z,49.36
2023-05-15T14:34:49.975Z,50.07
2023-05-15T14:37:17.908Z,48.24
2023-05-15T14:39:45.536Z,49.46
2023-05-15T14:42:14.514Z,48.84
2023-05-15T14:44:42.161Z,49.84
2023-05-15T14:47:12.430Z,49.94
2023-05-15T14:49:40.673Z,49.78
2023-05-15T14:52:10.630Z,48.11
2023-05-15T14:54:39.696Z,47.11
2023-05-15T14:57:07.923Z,47.70
2023-05-15T14:59:37.176Z,46.31
2023-05-15T15:02:04.962Z,45.77
2023-05-15T15:04:34.583Z,45.95
2023-05-15T15:07:04.840Z,46.07
2023-05-15T15:09:32.706Z,47.40
2023-05-15T15:12:00.361Z,46.85
2023-05-15T15:14:28.313Z,47.69
2023-05-15T15:16:57.291Z,46.78
2023-05-15T15:19:25.287Z,45.68
2023-05-15T15:21:52.977Z,43.00
2023-05-15T15:24:20.847Z,40.40
2023-05-15T15:26:48.432Z,42.05
2023-05-15T15:29:16.395Z,41.96
2023-05-15T15:31:44.116Z,41.64
2023-05-15T15:34:13.405Z,42.36
2023-05-15T15:36:41.459Z,43.58
2023-05-15T15:39:10.158Z,42.62
2023-05-15T15:41:39.324Z,42.51
2023-05-15T15:44:07.262Z,45.21
2023-05-15T15:46:34.908Z,44.34
2023-05-15T15:49:04.483Z,44.26
2023-05-15T15:51:34.903Z,43.36
2023-05-15T15:54:02.717Z,42.12
2023-05-15T15:56:30.563Z,46.26
2023-05-15T15:58:58.559Z,47.67
2023-05-15T16:01:26.337Z,48.22
2023-05-15T16:03:54.168Z,48.50
2023-05-15T16:06:21.812Z,45.38
2023-05-15T16:08:52.348Z,46.90
2023-05-15T16:11:19.926Z,46.83
2023-05-15T16:13:47.956Z,44.77
2023-05-15T16:16:15.605Z,46.50
2023-05-15T16:18:43.467Z,46.57
2023-05-15T16:21:11.394Z,49.01
2023-05-15T16:23:40.688Z,46.09
2023-05-15T16:26:10.953Z,46.92
2023-05-15T16:28:38.857Z,44.40
2023-05-15T16:31:06.601Z,44.19
2023-05-15T16:33:34.637Z,45.27
2023-05-15T16:36:05.424Z,47.02
2023-05-15T16:38:33.114Z,45.03
2023-05-15T16:41:01.699Z,46.14
2023-05-15T16:43:30.754Z,47.11
2023-05-15T16:45:59.177Z,47.96
2023-05-15T16:48:27.835Z,46.79
2023-05-15T16:50:55.920Z,49.79
2023-05-15T16:53:23.703Z,48.74
2023-05-15T16:55:51.910Z,47.14
2023-05-15T16:58:20.066Z,49.07
2023-05-15T17:00:49.412Z,48.64
2023-05-15T17:03:17.853Z,47.20
2023-05-15T17:05:46.377Z,48.48
2023-05-15T17:08:14.206Z,49.56
2023-05-15T17:10:41.956Z,46.92
2023-05-15T17:13:09.595Z,49.85
2023-05-15T17:15:37.373Z,49.64
2023-05-15T17:18:06.547Z,48.60
2023-05-15T17:20:34.440Z,48.20
2023-05-15T17:23:02.028Z,50.59
2023-05-15T17:25:29.937Z,49.67
2023-05-15T17:27:57.570Z,54.31
2023-05-15T17:30:25.722Z,54.38
2023-05-15T17:32:53.499Z,54.40
2023-05-15T17:35:22.893Z,55.23
2023-05-15T17:37:51.579Z,55.17
2023-05-15T17:40:19.594Z,58.44
2023-05-15T17:42:47.248Z,58.04
2023-05-15T17:45:15.088Z,57.17
2023-05-15T17:47:42.754Z,57.67
2023-05-15T17:50:11.579Z,56.67
2023-05-15T17:52:40.552Z,57.94
2023-05-15T17:55:09.385Z,56.40
2023-05-15T17:57:36.992Z,56.57
2023-05-15T18:00:07.331Z,58.58
2023-05-15T18:02:39.868Z,57.57
2023-05-15T18:05:08.540Z,59.03
2023-05-15T18:07:36.175Z,57.55
2023-05-15T18:10:06.911Z,58.87
2023-05-15T18:12:35.167Z,59.11
2023-05-15T18:15:03.194Z,59.80
2023-05-15T18:17:30.855Z,61.43
2023-05-15T18:19:58.494Z,63.68
2023-05-15T18:22:26.262Z,61.75
2023-05-15T18:24:53.900Z,63.74
2023-05-15T18:27:22.914Z,62.00
2023-05-15T18:29:51.500Z,63.88
2023-05-15T18:32:19.734Z,61.71
2023-05-15T18:34:47.803Z,59.69
2023-05-15T18:37:16.129Z,64.20
2023-05-15T18:39:44.125Z,64.55
2023-05-15T18:42:11.978Z,64.82
2023-05-15T18:44:41.197Z,65.80
2023-05-15T18:47:09.462Z,67.40
2023-05-15T18:49:37.284Z,66.92
2023-05-15T18:52:05.839Z,69.39
2023-05-15T18:54:33.665Z,68.04
2023-05-15T18:57:02.072Z,69.93
2023-05-15T18:59:30.019Z,71.15
2023-05-15T19:01:59.649Z,71.98
2023-05-15T19:04:27.272Z,72.94
2023-05-15T19:06:55.120Z,73.99
2023-05-15T19:09:22.695Z,74.43
2023-05-15T19:11:52.510Z,75.02
2023-05-15T19:14:20.196Z,75.24
2023-05-15T19:16:47.959Z,75.95
2023-05-15T19:19:17.063Z,76.61
2023-05-15T19:21:45.180Z,75.86
2023-05-15T19:24:12.797Z,75.64
2023-05-15T19:26:40.725Z,76.00
2023-05-15T19:29:08.340Z,76.51
2023-05-15T19:31:37.554Z,76.57
2023-05-15T19:34:05.426Z,76.00
2023-05-15T19:36:34.592Z,75.62
2023-05-15T19:39:02.331Z,74.98
2023-05-15T19:41:30.376Z,73.00
2023-05-15T19:43:57.978Z,75.20
2023-05-15T19:46:25.679Z,74.78
2023-05-15T19:48:53.740Z,73.31
2023-05-15T19:51:21.429Z,74.33
2023-05-15T19:53:50.464Z,75.29
2023-05-15T19:56:18.333Z,76.24
2023-05-15T19:58:46.265Z,76.30
2023-05-15T20:01:13.919Z,76.66
2023-05-15T20:03:41.994Z,76.67
2023-05-15T20:06:10.268Z,77.64
2023-05-15T20:08:38.180Z,77.08
2023-05-15T20:11:07.198Z,78.03
2023-05-15T20:13:35.449Z,78.42
2023-05-15T20:16:06.982Z,79.87
2023-05-15T20:18:35.804Z,79.15
2023-05-15T20:21:03.414Z,79.94
2023-05-15T20:23:31.410Z,80.41
2023-05-15T20:25:59.091Z,80.01
2023-05-15T20:28:29.189Z,78.74
2023-05-15T20:30:57.613Z,80.70
2023-05-15T20:33:25.480Z,81.15
2023-05-15T20:35:53.946Z,81.03
2023-05-15T20:38:23.372Z,81.07
2023-05-15T20:40:51.115Z,79.02
2023-05-15T20:43:18.770Z,78.79
2023-05-15T20:45:48.015Z,77.87
2023-05-15T20:48:15.641Z,78.58
2023-05-15T20:50:43.617Z,79.75
2023-05-15T20:53:11.275Z,82.53
2023-05-15T20:55:39.549Z,79.68
2023-05-15T20:58:07.621Z,79.27
2023-05-15T21:00:35.651Z,79.36
2023-05-15T21:03:05.317Z,79.81
2023-05-15T21:05:33.101Z,80.49
2023-05-15T21:08:00.767Z,82.18
2023-05-15T21:10:28.909Z,82.91
2023-05-15T21:12:59.135Z,82.43
2023-05-15T21:15:27.417Z,82.10
2023-05-15T21:17:55.029Z,82.71
2023-05-15T21:20:24.486Z,80.87
2023-05-15T21:22:52.286Z,82.01
2023-05-15T21:25:20.296Z,81.79
2023-05-15T21:27:47.889Z,82.71
2023-05-15T21:30:15.984Z,81.99
2023-05-15T21:32:44.061Z,81.98
2023-05-15T21:35:11.778Z,82.55
2023-05-15T21:37:41.022Z,82.21
2023-05-15T21:40:09.889Z,82.62
2023-05-15T21:42:37.826Z,83.28
2023-05-15T21:45:06.968Z,83.57
2023-05-15T21:47:35.012Z,84.03
2023-05-15T21:50:02.828Z,84.56
2023-05-15T21:52:30.728Z,84.31
2023-05-15T21:54:59.675Z,84.01
2023-05-15T21:57:27.270Z,83.76
2023-05-15T21:59:54.935Z,83.59
2023-05-15T22:02:23.268Z,83.86
2023-05-15T22:04:50.925Z,84.22
2023-05-15T22:07:19.036Z,83.95
2023-05-15T22:09:46.667Z,83.70
2023-05-15T22:12:16.080Z,84.13
2023-05-15T22:14:57.503Z,84.02
2023-05-15T22:17:27.463Z,84.17
2023-05-15T22:20:02.516Z,84.40
2023-05-15T22:22:30.467Z,83.30
2023-05-15T22:24:58.071Z,83.98
2023-05-15T22:27:27.950Z,83.68
2023-05-15T22:29:55.771Z,83.53
2023-05-15T22:32:23.830Z,84.50
2023-05-15T22:34:51.561Z,83.22
2023-05-15T22:37:19.598Z,83.66
2023-05-15T22:39:47.199Z,83.39
2023-05-15T22:42:15.080Z,82.79
2023-05-15T22:44:44.072Z,82.22
2023-05-15T22:47:11.936Z,82.71
2023-05-15T22:49:39.708Z,81.60
2023-05-15T22:52:08.090Z,81.58
2023-05-15T22:54:35.852Z,80.62
2023-05-15T22:57:03.441Z,80.29
2023-05-15T22:59:31.376Z,80.37
2023-05-15T23:02:00.481Z,79.67
2023-05-15T23:04:28.721Z,79.35
2023-05-15T23:06:56.975Z,78.13
2023-05-15T23:09:24.972Z,79.50
2023-05-15T23:11:52.645Z,79.14
2023-05-15T23:14:22.275Z,79.75
2023-05-15T23:16:50.202Z,79.22
2023-05-15T23:19:19.635Z,78.61
2023-05-15T23:21:47.701Z,78.41
2023-05-15T23:24:16.030Z,78.13
2023-05-15T23:26:44.184Z,77.96
2023-05-15T23:29:12.122Z,77.84
2023-05-15T23:31:39.926Z,76.57
2023-05-15T23:34:07.862Z,76.65
2023-05-15T23:36:36.869Z,77.02
2023-05-15T23:39:05.642Z,76.37
2023-05-15T23:41:33.555Z,77.51
2023-05-15T23:44:01.195Z,78.26
2023-05-15T23:46:29.003Z,77.24
2023-05-15T23:48:56.673Z,77.42
2023-05-15T23:51:24.963Z,77.73
2023-05-15T23:53:54.067Z,77.44
2023-05-15T23:56:23.457Z,76.41
2023-05-15T23:58:51.095Z,76.78
